createdAt,value
2018-09-09T00:00:17.578Z,0.00
2018-09-09T00:01:17.580Z,0.00
2018-09-09T00:02:17.541Z,0.00
2018-09-09T00:03:17.538Z,0.00
2018-09-09T00:04:17.520Z,0.00
2018-09-09T00:05:17.551Z,0.00
2018-09-09T00:06:17.512Z,0.00
2018-09-09T00:07:17.485Z,0.00
2018-09-09T00:08:18.484Z,0.00
2018-09-09T00:09:17.467Z,0.00
2018-09-09T00:10:17.461Z,0.00
2018-09-09T00:11:17.446Z,0.00
2018-09-09T00:12:17.430Z,0.00
2018-09-09T00:13:17.429Z,0.00
2018-09-09T00:14:17.415Z,0.00
2018-09-09T00:15:17.398Z,0.00
2018-09-09T00:16:17.657Z,0.00
2018-09-09T00:17:17.665Z,0.00
2018-09-09T00:18:17.365Z,0.00
2018-09-09T00:19:17.361Z,0.00
2018-09-09T00:20:17.351Z,0.00
2018-09-09T00:21:17.340Z,0.00
2018-09-09T00:22:17.593Z,0.00
2018-09-09T00:23:17.309Z,0.00
2018-09-09T00:24:17.301Z,0.00
2018-09-09T00:25:17.409Z,0.00
2018-09-09T00:26:17.278Z,0.00
2018-09-09T00:27:17.292Z,0.00
2018-09-09T00:28:17.524Z,0.00
2018-09-09T00:29:17.244Z,0.00
2018-09-09T00:30:17.258Z,0.00
2018-09-09T00:31:17.225Z,0.00
2018-09-09T00:32:17.253Z,0.00
2018-09-09T00:33:17.240Z,0.00
2018-09-09T00:34:17.737Z,0.00
2018-09-09T00:35:17.198Z,0.00
2018-09-09T00:36:17.170Z,0.00
2018-09-09T00:37:17.157Z,0.00
2018-09-09T00:38:17.158Z,0.00
2018-09-09T00:39:17.137Z,0.00
2018-09-09T00:40:17.233Z,0.00
2018-09-09T00:41:17.117Z,0.00
2018-09-09T00:42:17.101Z,0.00
2018-09-09T00:43:17.101Z,0.00
2018-09-09T00:44:17.078Z,0.00
2018-09-09T00:45:17.082Z,0.00
2018-09-09T00:46:17.061Z,0.00
2018-09-09T00:47:17.048Z,0.00
2018-09-09T00:48:17.035Z,0.00
2018-09-09T00:49:17.039Z,0.00
2018-09-09T00:50:17.017Z,0.00
2018-09-09T00:51:17.016Z,0.00
2018-09-09T00:52:17.273Z,0.00
2018-09-09T00:53:16.974Z,0.00
2018-09-09T00:54:16.966Z,0.00
2018-09-09T00:55:16.967Z,0.00
2018-09-09T00:56:16.951Z,0.00
2018-09-09T00:57:16.943Z,0.00
2018-09-09T00:58:17.465Z,0.00
2018-09-09T00:59:16.919Z,0.00
2018-09-09T01:00:17.183Z,0.00
2018-09-09T01:01:16.895Z,0.00
2018-09-09T01:02:16.880Z,0.00
2018-09-09T01:03:17.133Z,0.00
2018-09-09T01:04:16.875Z,0.00
2018-09-09T01:05:17.227Z,0.00
2018-09-09T01:06:16.837Z,0.00
2018-09-09T01:07:16.830Z,0.00
2018-09-09T01:08:16.821Z,0.00
2018-09-09T01:09:16.804Z,0.00
2018-09-09T01:10:16.918Z,0.00
2018-09-09T01:11:16.782Z,0.00
2018-09-09T01:12:16.780Z,0.00
2018-09-09T01:13:16.762Z,0.00
2018-09-09T01:14:16.747Z,0.00
2018-09-09T01:15:16.740Z,0.00
2018-09-09T01:16:16.742Z,0.00
2018-09-09T01:17:16.716Z,0.00
2018-09-09T01:18:16.705Z,0.00
2018-09-09T01:19:16.691Z,0.00
2018-09-09T01:20:16.682Z,0.00
2018-09-09T01:21:16.687Z,0.00
2018-09-09T01:22:16.922Z,0.00
2018-09-09T01:23:16.659Z,0.00
2018-09-09T01:24:16.645Z,0.00
2018-09-09T01:25:16.904Z,0.00
2018-09-09T01:26:16.614Z,0.00
2018-09-09T01:27:16.873Z,0.00
2018-09-09T01:28:16.607Z,0.00
2018-09-09T01:29:16.589Z,0.00
2018-09-09T01:30:16.578Z,0.00
2018-09-09T01:31:16.568Z,0.00
2018-09-09T01:32:16.553Z,0.00
2018-09-09T01:33:16.534Z,0.00
2018-09-09T01:34:16.540Z,0.00
2018-09-09T01:35:16.763Z,0.00
2018-09-09T01:36:16.632Z,0.00
2018-09-09T01:37:16.759Z,0.00
2018-09-09T01:38:16.482Z,0.00
2018-09-09T01:39:16.473Z,0.00
2018-09-09T01:40:16.471Z,0.00
2018-09-09T01:41:16.459Z,0.00
2018-09-09T01:42:16.704Z,0.00
2018-09-09T01:43:16.700Z,0.00
2018-09-09T01:44:16.434Z,0.00
2018-09-09T01:45:16.404Z,0.00
2018-09-09T01:46:16.400Z,0.00
2018-09-09T01:47:16.647Z,0.00
2018-09-09T01:48:16.485Z,0.00
2018-09-09T01:49:16.371Z,0.00
2018-09-09T01:50:16.463Z,0.00
2018-09-09T01:51:16.343Z,0.00
2018-09-09T01:52:16.329Z,0.00
2018-09-09T01:53:16.315Z,0.00
2018-09-09T01:54:16.310Z,0.00
2018-09-09T01:55:16.315Z,0.00
2018-09-09T01:56:16.570Z,0.00
2018-09-09T01:57:16.273Z,0.00
2018-09-09T01:58:16.266Z,0.00
2018-09-09T01:59:16.511Z,0.00
2018-09-09T02:00:16.504Z,0.00
2018-09-09T02:01:16.229Z,0.00
2018-09-09T02:02:16.214Z,0.00
2018-09-09T02:03:16.211Z,0.00
2018-09-09T02:04:16.195Z,0.00
2018-09-09T02:05:16.185Z,0.00
2018-09-09T02:06:16.312Z,0.00
2018-09-09T02:07:16.431Z,0.00
2018-09-09T02:08:16.155Z,0.00
2018-09-09T02:09:16.289Z,0.00
2018-09-09T02:10:16.396Z,0.00
2018-09-09T02:11:16.123Z,0.00
2018-09-09T02:12:16.371Z,0.00
2018-09-09T02:13:16.094Z,0.00
2018-09-09T02:14:16.100Z,0.00
2018-09-09T02:15:16.078Z,0.00
2018-09-09T02:16:16.069Z,0.00
2018-09-09T02:17:16.053Z,0.00
2018-09-09T02:18:16.048Z,0.00
2018-09-09T02:19:16.042Z,0.00
2018-09-09T02:20:16.021Z,0.00
2018-09-09T02:21:16.015Z,0.00
2018-09-09T02:22:16.530Z,0.00
2018-09-09T02:23:15.992Z,0.00
2018-09-09T02:24:15.981Z,0.00
2018-09-09T02:25:15.966Z,0.00
2018-09-09T02:26:15.980Z,0.00
2018-09-09T02:27:15.943Z,0.00
2018-09-09T02:28:16.200Z,0.00
2018-09-09T02:29:15.928Z,0.00
2018-09-09T02:30:15.917Z,0.00
2018-09-09T02:31:15.902Z,0.00
2018-09-09T02:32:15.907Z,0.00
2018-09-09T02:33:15.880Z,0.00
2018-09-09T02:34:15.865Z,0.00
2018-09-09T02:35:15.873Z,0.00
2018-09-09T02:36:15.938Z,0.00
2018-09-09T02:37:15.832Z,0.00
2018-09-09T02:38:15.823Z,0.00
2018-09-09T02:39:15.806Z,0.00
2018-09-09T02:40:15.800Z,0.00
2018-09-09T02:41:15.793Z,0.00
2018-09-09T02:42:15.784Z,0.00
2018-09-09T02:43:15.765Z,0.00
2018-09-09T02:44:15.759Z,0.00
2018-09-09T02:45:15.748Z,0.00
2018-09-09T02:46:15.745Z,0.00
2018-09-09T02:47:15.720Z,0.00
2018-09-09T02:48:15.907Z,0.00
2018-09-09T02:49:15.712Z,0.00
2018-09-09T02:50:15.793Z,0.00
2018-09-09T02:51:15.689Z,0.00
2018-09-09T02:52:15.679Z,0.00
2018-09-09T02:53:15.657Z,0.00
2018-09-09T02:54:15.916Z,0.00
2018-09-09T02:55:15.901Z,0.00
2018-09-09T02:56:15.668Z,0.00
2018-09-09T02:57:15.617Z,0.00
2018-09-09T02:58:15.598Z,0.00
2018-09-09T02:59:15.590Z,0.00
2018-09-09T03:00:15.577Z,0.00
2018-09-09T03:01:15.570Z,0.00
2018-09-09T03:02:15.567Z,0.00
2018-09-09T03:03:15.543Z,0.00
2018-09-09T03:04:15.798Z,0.00
2018-09-09T03:05:15.524Z,0.00
2018-09-09T03:06:15.526Z,0.00
2018-09-09T03:07:16.039Z,0.00
2018-09-09T03:08:15.503Z,0.00
2018-09-09T03:09:15.480Z,0.00
2018-09-09T03:10:15.472Z,0.00
2018-09-09T03:11:15.473Z,0.00
2018-09-09T03:12:15.469Z,0.00
2018-09-09T03:13:15.432Z,0.00
2018-09-09T03:14:15.692Z,0.00
2018-09-09T03:15:15.426Z,0.00
2018-09-09T03:16:15.403Z,0.00
2018-09-09T03:17:15.400Z,0.00
2018-09-09T03:18:15.420Z,0.00
2018-09-09T03:19:15.365Z,0.00
2018-09-09T03:20:15.356Z,0.00
2018-09-09T03:21:15.368Z,0.00
2018-09-09T03:22:15.344Z,0.00
2018-09-09T03:23:15.588Z,0.00
2018-09-09T03:24:15.325Z,0.00
2018-09-09T03:25:15.299Z,0.00
2018-09-09T03:26:15.293Z,0.00
2018-09-09T03:27:15.285Z,0.00
2018-09-09T03:28:15.265Z,0.00
2018-09-09T03:29:15.261Z,0.00
2018-09-09T03:30:15.262Z,0.00
2018-09-09T03:31:15.236Z,0.00
2018-09-09T03:32:15.495Z,0.00
2018-09-09T03:33:15.626Z,0.00
2018-09-09T03:34:15.469Z,0.00
2018-09-09T03:35:15.452Z,0.00
2018-09-09T03:36:15.297Z,0.00
2018-09-09T03:37:15.168Z,0.00
2018-09-09T03:38:15.163Z,0.00
2018-09-09T03:39:15.413Z,0.00
2018-09-09T03:40:15.133Z,0.00
2018-09-09T03:41:15.123Z,0.00
2018-09-09T03:42:15.115Z,0.00
2018-09-09T03:43:15.368Z,0.00
2018-09-09T03:44:15.093Z,0.00
2018-09-09T03:45:15.091Z,0.00
2018-09-09T03:46:15.110Z,0.00
2018-09-09T03:47:15.060Z,0.00
2018-09-09T03:48:15.312Z,0.00
2018-09-09T03:49:15.035Z,0.00
2018-09-09T03:50:15.030Z,0.00
2018-09-09T03:51:15.027Z,0.00
2018-09-09T03:52:16.064Z,0.00
2018-09-09T03:53:14.998Z,0.00
2018-09-09T03:54:14.982Z,0.00
2018-09-09T03:55:14.976Z,0.00
2018-09-09T03:56:14.956Z,0.00
2018-09-09T03:57:14.954Z,0.00
2018-09-09T03:58:14.939Z,0.00
2018-09-09T03:59:15.199Z,0.00
2018-09-09T04:00:14.924Z,0.00
2018-09-09T04:01:14.916Z,0.00
2018-09-09T04:02:14.896Z,0.00
2018-09-09T04:03:14.882Z,0.00
2018-09-09T04:04:14.870Z,0.00
2018-09-09T04:05:14.857Z,0.00
2018-09-09T04:06:14.951Z,0.00
2018-09-09T04:07:14.840Z,0.00
2018-09-09T04:08:14.833Z,0.00
2018-09-09T04:09:14.818Z,0.00
2018-09-09T04:10:15.146Z,0.00
2018-09-09T04:11:14.920Z,0.00
2018-09-09T04:12:14.783Z,0.00
2018-09-09T04:13:14.774Z,0.00
2018-09-09T04:14:15.026Z,0.00
2018-09-09T04:15:14.757Z,0.00
2018-09-09T04:16:14.782Z,0.00
2018-09-09T04:17:14.727Z,0.00
2018-09-09T04:18:15.006Z,0.00
2018-09-09T04:19:14.713Z,0.00
2018-09-09T04:20:14.700Z,0.00
2018-09-09T04:21:14.681Z,0.00
2018-09-09T04:22:14.700Z,0.00
2018-09-09T04:23:14.660Z,0.00
2018-09-09T04:24:14.667Z,0.00
2018-09-09T04:25:14.644Z,0.00
2018-09-09T04:26:14.628Z,0.00
2018-09-09T04:27:14.617Z,0.00
2018-09-09T04:28:14.607Z,0.00
2018-09-09T04:29:14.593Z,4.00
2018-09-09T04:30:14.583Z,4.00
2018-09-09T04:31:14.849Z,4.00
2018-09-09T04:32:14.562Z,4.00
2018-09-09T04:33:14.553Z,4.00
2018-09-09T04:34:14.812Z,8.00
2018-09-09T04:35:14.554Z,4.00
2018-09-09T04:36:14.520Z,12.00
2018-09-09T04:37:14.520Z,12.00
2018-09-09T04:38:14.519Z,12.00
2018-09-09T04:39:14.488Z,12.00
2018-09-09T04:40:14.470Z,16.00
2018-09-09T04:41:14.479Z,20.00
2018-09-09T04:42:14.482Z,24.00
2018-09-09T04:43:14.445Z,32.00
2018-09-09T04:44:14.436Z,36.00
2018-09-09T04:45:14.417Z,44.00
2018-09-09T04:46:14.433Z,52.00
2018-09-09T04:47:14.679Z,60.00
2018-09-09T04:48:14.671Z,72.00
2018-09-09T04:49:14.400Z,80.00
2018-09-09T04:50:14.656Z,88.00
2018-09-09T04:51:14.363Z,100.00
2018-09-09T04:52:14.351Z,112.00
2018-09-09T04:53:14.329Z,128.00
2018-09-09T04:54:14.319Z,148.00
2018-09-09T04:55:14.671Z,168.00
2018-09-09T04:56:14.317Z,200.00
2018-09-09T04:57:15.025Z,220.00
2018-09-09T04:58:14.281Z,244.00
2018-09-09T04:59:14.270Z,264.00
2018-09-09T05:00:14.270Z,288.00
2018-09-09T05:01:14.298Z,316.00
2018-09-09T05:02:14.347Z,344.00
2018-09-09T05:03:14.223Z,376.00
2018-09-09T05:04:14.223Z,408.00
2018-09-09T05:05:14.207Z,444.00
2018-09-09T05:06:14.487Z,484.00
2018-09-09T05:07:14.187Z,524.00
2018-09-09T05:08:14.168Z,564.00
2018-09-09T05:09:14.162Z,600.00
2018-09-09T05:10:14.140Z,640.00
2018-09-09T05:11:14.133Z,684.00
2018-09-09T05:12:14.122Z,724.00
2018-09-09T05:13:14.112Z,768.00
2018-09-09T05:14:14.093Z,816.00
2018-09-09T05:15:14.092Z,876.00
2018-09-09T05:16:14.079Z,940.00
2018-09-09T05:17:14.068Z,1016.00
2018-09-09T05:18:14.063Z,1092.00
2018-09-09T05:19:14.399Z,1180.00
2018-09-09T05:20:14.031Z,1272.00
2018-09-09T05:21:14.036Z,1376.00
2018-09-09T05:22:14.012Z,1500.00
2018-09-09T05:23:13.998Z,1632.00
2018-09-09T05:24:13.986Z,1744.00
2018-09-09T05:25:14.031Z,1844.00
2018-09-09T05:26:14.233Z,1928.00
2018-09-09T05:27:13.970Z,1996.00
2018-09-09T05:28:13.951Z,2048.00
2018-09-09T05:29:13.947Z,2088.00
2018-09-09T05:30:18.874Z,2152.00
2018-09-09T05:31:13.909Z,2252.00
2018-09-09T05:32:13.914Z,2384.00
2018-09-09T05:33:14.151Z,2544.00
2018-09-09T05:34:13.891Z,2724.00
2018-09-09T05:35:13.868Z,2912.00
2018-09-09T05:36:13.866Z,3100.00
2018-09-09T05:37:13.847Z,3288.00
2018-09-09T05:38:13.960Z,3452.00
2018-09-09T05:39:13.895Z,3588.00
2018-09-09T05:40:13.809Z,3688.00
2018-09-09T05:41:13.798Z,3756.00
2018-09-09T05:42:13.798Z,3812.00
2018-09-09T05:43:13.783Z,3856.00
2018-09-09T05:44:13.768Z,3892.00
2018-09-09T05:45:14.027Z,3924.00
2018-09-09T05:46:13.743Z,3976.00
2018-09-09T05:47:13.733Z,4016.00
2018-09-09T05:48:14.006Z,4064.00
2018-09-09T05:49:13.721Z,4064.00
2018-09-09T05:50:13.701Z,4060.00
2018-09-09T05:51:13.689Z,4048.00
2018-09-09T05:52:13.967Z,4036.00
2018-09-09T05:53:13.703Z,4020.00
2018-09-09T05:54:13.658Z,4008.00
2018-09-09T05:55:13.655Z,4152.00
2018-09-09T05:56:13.904Z,4356.00
2018-09-09T05:57:13.633Z,4024.00
2018-09-09T05:58:13.669Z,3632.00
2018-09-09T05:59:13.607Z,3412.00
2018-09-09T06:00:21.374Z,3220.00
2018-09-09T06:01:13.593Z,3036.00
2018-09-09T06:02:13.570Z,2908.00
2018-09-09T06:03:13.567Z,2800.00
2018-09-09T06:04:13.567Z,2724.00
2018-09-09T06:05:13.538Z,2676.00
2018-09-09T06:06:13.808Z,2664.00
2018-09-09T06:07:13.520Z,2696.00
2018-09-09T06:08:13.884Z,2776.00
2018-09-09T06:09:13.767Z,2908.00
2018-09-09T06:10:13.487Z,3088.00
2018-09-09T06:11:13.475Z,3300.00
2018-09-09T06:12:13.461Z,3520.00
2018-09-09T06:13:13.450Z,3748.00
2018-09-09T06:14:13.441Z,3980.00
2018-09-09T06:15:20.070Z,4184.00
2018-09-09T06:16:13.948Z,4372.00
2018-09-09T06:17:13.413Z,4520.00
2018-09-09T06:18:13.401Z,4608.00
2018-09-09T06:19:13.428Z,4632.00
2018-09-09T06:20:13.976Z,4584.00
2018-09-09T06:21:13.466Z,4496.00
2018-09-09T06:22:13.421Z,4384.00
2018-09-09T06:23:13.342Z,4276.00
2018-09-09T06:24:13.337Z,4212.00
2018-09-09T06:25:13.323Z,4212.00
2018-09-09T06:26:13.324Z,4312.00
2018-09-09T06:27:13.299Z,4524.00
2018-09-09T06:28:13.311Z,4848.00
2018-09-09T06:29:13.290Z,5280.00
2018-09-09T06:30:13.261Z,5784.00
2018-09-09T06:31:13.264Z,6304.00
2018-09-09T06:32:13.246Z,6812.00
2018-09-09T06:33:13.393Z,7212.00
2018-09-09T06:34:13.278Z,7416.00
2018-09-09T06:35:13.265Z,7440.00
2018-09-09T06:36:13.198Z,7376.00
2018-09-09T06:37:13.308Z,7260.00
2018-09-09T06:38:13.220Z,7180.00
2018-09-09T06:39:13.172Z,7164.00
2018-09-09T06:40:13.436Z,7200.00
2018-09-09T06:41:13.141Z,7244.00
2018-09-09T06:42:13.131Z,7208.00
2018-09-09T06:43:13.132Z,7160.00
2018-09-09T06:44:13.121Z,7096.00
2018-09-09T06:45:13.105Z,6964.00
2018-09-09T06:46:13.108Z,6844.00
2018-09-09T06:47:13.076Z,6764.00
2018-09-09T06:48:13.064Z,6696.00
2018-09-09T06:49:13.056Z,6624.00
2018-09-09T06:50:13.069Z,6612.00
2018-09-09T06:51:13.049Z,6644.00
2018-09-09T06:52:13.302Z,6724.00
2018-09-09T06:53:13.017Z,6832.00
2018-09-09T06:54:13.015Z,6960.00
2018-09-09T06:55:12.996Z,7132.00
2018-09-09T06:56:13.004Z,7316.00
2018-09-09T06:57:12.988Z,7512.00
2018-09-09T06:58:12.959Z,7704.00
2018-09-09T06:59:12.951Z,7908.00
2018-09-09T07:00:12.933Z,8104.00
2018-09-09T07:01:13.186Z,8292.00
2018-09-09T07:02:13.088Z,8456.00
2018-09-09T07:03:12.904Z,8568.00
2018-09-09T07:04:12.888Z,8628.00
2018-09-09T07:05:12.882Z,8628.00
2018-09-09T07:06:12.883Z,8592.00
2018-09-09T07:07:13.125Z,8568.00
2018-09-09T07:08:12.860Z,8544.00
2018-09-09T07:09:12.841Z,8536.00
2018-09-09T07:10:12.824Z,8532.00
2018-09-09T07:11:12.897Z,8500.00
2018-09-09T07:12:12.808Z,8432.00
2018-09-09T07:13:13.208Z,8352.00
2018-09-09T07:14:12.787Z,8244.00
2018-09-09T07:15:13.032Z,8120.00
2018-09-09T07:16:12.777Z,8004.00
2018-09-09T07:17:13.043Z,7892.00
2018-09-09T07:18:12.749Z,7796.00
2018-09-09T07:19:12.839Z,7732.00
2018-09-09T07:20:12.729Z,7700.00
2018-09-09T07:21:12.707Z,7688.00
2018-09-09T07:22:12.698Z,7668.00
2018-09-09T07:23:12.949Z,7636.00
2018-09-09T07:24:13.196Z,7580.00
2018-09-09T07:25:12.686Z,7532.00
2018-09-09T07:26:12.648Z,7488.00
2018-09-09T07:27:12.641Z,7444.00
2018-09-09T07:28:12.634Z,7392.00
2018-09-09T07:29:12.632Z,7316.00
2018-09-09T07:30:12.608Z,7232.00
2018-09-09T07:31:12.939Z,7124.00
2018-09-09T07:32:12.585Z,7028.00
2018-09-09T07:33:12.571Z,6940.00
2018-09-09T07:34:12.645Z,6860.00
2018-09-09T07:35:12.820Z,6776.00
2018-09-09T07:36:12.544Z,6684.00
2018-09-09T07:37:12.606Z,6560.00
2018-09-09T07:38:12.518Z,6400.00
2018-09-09T07:39:12.522Z,6220.00
2018-09-09T07:40:12.622Z,6024.00
2018-09-09T07:41:13.133Z,5816.00
2018-09-09T07:42:12.523Z,5620.00
2018-09-09T07:43:12.731Z,5444.00
2018-09-09T07:44:12.455Z,5220.00
2018-09-09T07:45:12.448Z,5020.00
2018-09-09T07:46:12.479Z,4812.00
2018-09-09T07:47:12.523Z,4644.00
2018-09-09T07:48:12.679Z,4480.00
2018-09-09T07:49:12.414Z,4296.00
2018-09-09T07:50:12.681Z,4152.00
2018-09-09T07:51:12.436Z,4052.00
2018-09-09T07:52:12.366Z,3940.00
2018-09-09T07:53:12.650Z,3876.00
2018-09-09T07:54:12.649Z,3860.00
2018-09-09T07:55:12.346Z,3932.00
2018-09-09T07:56:12.418Z,4036.00
2018-09-09T07:57:12.315Z,4176.00
2018-09-09T07:58:14.114Z,4260.00
2018-09-09T07:59:12.415Z,4324.00
2018-09-09T08:00:12.281Z,4268.00
2018-09-09T08:01:12.313Z,4100.00
2018-09-09T08:02:12.262Z,3956.00
2018-09-09T08:03:12.769Z,3832.00
2018-09-09T08:04:12.240Z,3812.00
2018-09-09T08:05:12.224Z,3912.00
2018-09-09T08:06:12.227Z,4000.00
2018-09-09T08:07:12.512Z,4116.00
2018-09-09T08:08:12.197Z,4080.00
2018-09-09T08:09:12.306Z,4012.00
2018-09-09T08:10:12.302Z,3844.00
2018-09-09T08:11:12.278Z,3820.00
2018-09-09T08:12:12.571Z,3912.00
2018-09-09T08:13:12.415Z,4080.00
2018-09-09T08:14:12.131Z,4400.00
2018-09-09T08:15:23.122Z,4768.00
2018-09-09T08:16:12.105Z,5316.00
2018-09-09T08:17:12.209Z,5724.00
2018-09-09T08:18:12.085Z,6092.00
2018-09-09T08:19:12.340Z,6556.00
2018-09-09T08:20:12.335Z,7044.00
2018-09-09T08:21:12.053Z,7504.00
2018-09-09T08:22:12.309Z,8088.00
2018-09-09T08:23:12.125Z,8352.00
2018-09-09T08:24:12.024Z,8732.00
2018-09-09T08:25:12.008Z,9128.00
2018-09-09T08:26:12.005Z,9524.00
2018-09-09T08:27:11.985Z,9992.00
2018-09-09T08:28:11.978Z,10516.00
2018-09-09T08:29:11.962Z,11112.00
2018-09-09T08:30:12.249Z,11716.00
2018-09-09T08:31:11.947Z,12308.00
2018-09-09T08:32:11.943Z,12844.00
2018-09-09T08:33:12.437Z,13228.00
2018-09-09T08:34:11.984Z,13456.00
2018-09-09T08:35:11.934Z,13588.00
2018-09-09T08:36:12.658Z,13608.00
2018-09-09T08:37:11.881Z,13612.00
2018-09-09T08:38:11.865Z,13596.00
2018-09-09T08:39:13.818Z,13600.00
2018-09-09T08:40:11.869Z,13644.00
2018-09-09T08:41:11.837Z,13780.00
2018-09-09T08:42:11.824Z,14000.00
2018-09-09T08:43:11.834Z,14260.00
2018-09-09T08:44:11.806Z,14624.00
2018-09-09T08:45:22.304Z,15012.00
2018-09-09T08:46:11.780Z,15124.00
2018-09-09T08:47:11.772Z,15392.00
2018-09-09T08:48:11.759Z,15720.00
2018-09-09T08:49:12.120Z,16028.00
2018-09-09T08:50:11.738Z,16204.00
2018-09-09T08:51:11.723Z,16344.00
2018-09-09T08:52:11.799Z,16428.00
2018-09-09T08:53:11.701Z,16532.00
2018-09-09T08:54:12.118Z,16564.00
2018-09-09T08:55:11.679Z,16604.00
2018-09-09T08:56:11.671Z,16492.00
2018-09-09T08:57:11.663Z,16260.00
2018-09-09T08:58:11.651Z,15920.00
2018-09-09T08:59:11.657Z,15472.00
2018-09-09T09:00:21.807Z,14960.00
2018-09-09T09:01:11.881Z,14316.00
2018-09-09T09:02:11.842Z,13664.00
2018-09-09T09:03:11.597Z,13052.00
2018-09-09T09:04:11.584Z,12436.00
2018-09-09T09:05:11.854Z,12020.00
2018-09-09T09:06:11.573Z,11644.00
2018-09-09T09:07:11.555Z,10916.00
2018-09-09T09:08:12.457Z,10276.00
2018-09-09T09:09:11.533Z,9752.00
2018-09-09T09:10:11.533Z,9304.00
2018-09-09T09:11:11.515Z,8900.00
2018-09-09T09:12:11.499Z,8656.00
2018-09-09T09:13:12.555Z,8596.00
2018-09-09T09:14:11.497Z,8744.00
2018-09-09T09:15:11.539Z,9096.00
2018-09-09T09:16:11.798Z,9696.00
2018-09-09T09:17:11.452Z,10524.00
2018-09-09T09:18:11.567Z,11736.00
2018-09-09T09:19:11.441Z,12556.00
2018-09-09T09:20:12.479Z,13360.00
2018-09-09T09:21:11.404Z,13784.00
2018-09-09T09:22:11.408Z,14140.00
2018-09-09T09:23:11.642Z,14416.00
2018-09-09T09:24:11.375Z,14672.00
2018-09-09T09:25:11.478Z,15004.00
2018-09-09T09:26:11.348Z,15364.00
2018-09-09T09:27:11.349Z,15684.00
2018-09-09T09:28:11.327Z,15896.00
2018-09-09T09:29:11.310Z,16088.00
2018-09-09T09:30:19.614Z,16200.00
2018-09-09T09:31:11.294Z,16252.00
2018-09-09T09:32:11.283Z,16260.00
2018-09-09T09:33:11.275Z,16284.00
2018-09-09T09:34:11.291Z,16332.00
2018-09-09T09:35:11.254Z,16368.00
2018-09-09T09:36:11.354Z,16360.00
2018-09-09T09:37:11.231Z,16300.00
2018-09-09T09:38:11.220Z,16160.00
2018-09-09T09:39:11.213Z,15948.00
2018-09-09T09:40:11.200Z,15632.00
2018-09-09T09:41:11.439Z,15240.00
2018-09-09T09:42:11.218Z,14788.00
2018-09-09T09:43:11.163Z,14312.00
2018-09-09T09:44:11.152Z,13796.00
2018-09-09T09:45:11.171Z,13308.00
2018-09-09T09:46:11.181Z,12760.00
2018-09-09T09:47:11.438Z,12060.00
2018-09-09T09:48:11.116Z,11320.00
2018-09-09T09:49:11.232Z,10792.00
2018-09-09T09:50:11.093Z,10092.00
2018-09-09T09:51:11.190Z,9048.00
2018-09-09T09:52:11.139Z,8040.00
2018-09-09T09:53:11.107Z,7116.00
2018-09-09T09:54:11.167Z,6176.00
2018-09-09T09:55:11.370Z,5636.00
2018-09-09T09:56:11.296Z,5056.00
2018-09-09T09:57:11.011Z,4436.00
2018-09-09T09:58:11.007Z,4216.00
2018-09-09T09:59:10.997Z,4076.00
2018-09-09T10:00:10.983Z,3880.00
2018-09-09T10:01:11.254Z,3936.00
2018-09-09T10:02:11.077Z,4108.00
2018-09-09T10:03:11.121Z,4556.00
2018-09-09T10:04:10.943Z,4576.00
2018-09-09T10:05:10.939Z,4820.00
2018-09-09T10:06:11.188Z,5224.00
2018-09-09T10:07:10.967Z,5480.00
2018-09-09T10:08:10.891Z,5684.00
2018-09-09T10:09:10.996Z,5628.00
2018-09-09T10:10:10.870Z,5492.00
2018-09-09T10:11:10.868Z,5508.00
2018-09-09T10:12:10.974Z,5236.00
2018-09-09T10:13:10.964Z,5296.00
2018-09-09T10:14:10.852Z,5196.00
2018-09-09T10:15:11.950Z,5108.00
2018-09-09T10:16:10.909Z,5056.00
2018-09-09T10:17:10.915Z,4988.00
2018-09-09T10:18:10.823Z,4876.00
2018-09-09T10:19:11.032Z,4836.00
2018-09-09T10:20:10.772Z,4760.00
2018-09-09T10:21:10.760Z,4700.00
2018-09-09T10:22:10.867Z,4544.00
2018-09-09T10:23:10.732Z,4548.00
2018-09-09T10:24:10.839Z,4476.00
2018-09-09T10:25:10.967Z,4424.00
2018-09-09T10:26:10.717Z,4368.00
2018-09-09T10:27:10.686Z,4388.00
2018-09-09T10:28:10.829Z,4264.00
2018-09-09T10:29:10.664Z,4292.00
2018-09-09T10:30:11.138Z,4360.00
2018-09-09T10:31:11.074Z,4436.00
2018-09-09T10:32:10.637Z,4536.00
2018-09-09T10:33:10.724Z,4540.00
2018-09-09T10:34:11.238Z,4660.00
2018-09-09T10:35:10.596Z,4744.00
2018-09-09T10:36:10.583Z,4800.00
2018-09-09T10:37:10.908Z,4832.00
2018-09-09T10:38:10.572Z,4980.00
2018-09-09T10:39:10.588Z,5028.00
2018-09-09T10:40:10.545Z,5188.00
2018-09-09T10:41:10.595Z,5404.00
2018-09-09T10:42:10.671Z,5380.00
2018-09-09T10:43:10.512Z,5424.00
2018-09-09T10:44:10.508Z,5560.00
2018-09-09T10:45:18.864Z,5540.00
2018-09-09T10:46:10.541Z,5616.00
2018-09-09T10:47:10.568Z,5620.00
2018-09-09T10:48:10.528Z,5616.00
2018-09-09T10:49:10.443Z,5704.00
2018-09-09T10:50:10.697Z,6076.00
2018-09-09T10:51:10.422Z,6348.00
2018-09-09T10:52:11.128Z,6732.00
2018-09-09T10:53:10.438Z,6976.00
2018-09-09T10:54:10.384Z,7024.00
2018-09-09T10:55:10.500Z,7020.00
2018-09-09T10:56:10.361Z,7044.00
2018-09-09T10:57:10.352Z,7012.00
2018-09-09T10:58:10.342Z,6920.00
2018-09-09T10:59:10.464Z,6820.00
2018-09-09T11:00:10.606Z,6560.00
2018-09-09T11:01:10.477Z,6152.00
2018-09-09T11:02:10.384Z,5680.00
2018-09-09T11:03:10.287Z,5244.00
2018-09-09T11:04:10.283Z,4868.00
2018-09-09T11:05:10.530Z,4576.00
2018-09-09T11:06:10.537Z,4380.00
2018-09-09T11:07:10.245Z,4228.00
2018-09-09T11:08:10.237Z,4092.00
2018-09-09T11:09:11.870Z,3992.00
2018-09-09T11:10:10.207Z,3976.00
2018-09-09T11:11:10.196Z,3940.00
2018-09-09T11:12:10.196Z,3920.00
2018-09-09T11:13:10.443Z,3896.00
2018-09-09T11:14:10.211Z,3872.00
2018-09-09T11:15:10.152Z,3812.00
2018-09-09T11:16:10.416Z,3876.00
2018-09-09T11:17:10.129Z,3920.00
2018-09-09T11:18:10.230Z,3948.00
2018-09-09T11:19:10.124Z,3972.00
2018-09-09T11:20:10.119Z,3964.00
2018-09-09T11:21:10.114Z,3952.00
2018-09-09T11:22:10.186Z,3936.00
2018-09-09T11:23:10.069Z,3908.00
2018-09-09T11:24:10.107Z,3856.00
2018-09-09T11:25:10.043Z,3884.00
2018-09-09T11:26:10.032Z,3952.00
2018-09-09T11:27:10.034Z,4048.00
2018-09-09T11:28:10.008Z,4216.00
2018-09-09T11:29:10.113Z,4416.00
2018-09-09T11:30:10.105Z,4532.00
2018-09-09T11:31:09.976Z,4584.00
2018-09-09T11:32:09.980Z,4568.00
2018-09-09T11:33:09.971Z,4516.00
2018-09-09T11:34:10.041Z,4436.00
2018-09-09T11:35:09.931Z,4372.00
2018-09-09T11:36:09.965Z,4340.00
2018-09-09T11:37:09.935Z,4320.00
2018-09-09T11:38:09.922Z,4308.00
2018-09-09T11:39:09.982Z,4300.00
2018-09-09T11:40:09.881Z,4276.00
2018-09-09T11:41:09.863Z,4232.00
2018-09-09T11:42:09.856Z,4200.00
2018-09-09T11:43:09.848Z,4160.00
2018-09-09T11:44:09.832Z,4104.00
2018-09-09T11:45:17.001Z,4064.00
2018-09-09T11:46:09.810Z,4024.00
2018-09-09T11:47:09.802Z,3972.00
2018-09-09T11:48:10.055Z,3920.00
2018-09-09T11:49:10.041Z,3876.00
2018-09-09T11:50:09.785Z,3856.00
2018-09-09T11:51:09.756Z,3840.00
2018-09-09T11:52:09.753Z,3840.00
2018-09-09T11:53:10.031Z,3836.00
2018-09-09T11:54:09.725Z,3808.00
2018-09-09T11:55:09.710Z,3772.00
2018-09-09T11:56:09.706Z,3764.00
2018-09-09T11:57:09.700Z,3712.00
2018-09-09T11:58:09.681Z,3560.00
2018-09-09T11:59:10.055Z,3812.00
2018-09-09T12:00:09.762Z,4100.00
2018-09-09T12:01:09.656Z,4520.00
2018-09-09T12:02:09.729Z,5000.00
2018-09-09T12:03:11.805Z,5556.00
2018-09-09T12:04:09.618Z,5880.00
2018-09-09T12:05:09.871Z,5748.00
2018-09-09T12:06:09.989Z,5584.00
2018-09-09T12:07:09.700Z,5456.00
2018-09-09T12:08:09.852Z,5264.00
2018-09-09T12:09:09.662Z,4568.00
2018-09-09T12:10:09.806Z,4600.00
2018-09-09T12:11:09.805Z,4800.00
2018-09-09T12:12:09.529Z,4660.00
2018-09-09T12:13:09.520Z,4692.00
2018-09-09T12:14:09.622Z,4612.00
2018-09-09T12:15:09.497Z,4456.00
2018-09-09T12:16:09.494Z,4280.00
2018-09-09T12:17:09.472Z,4112.00
2018-09-09T12:18:09.736Z,3936.00
2018-09-09T12:19:09.553Z,3816.00
2018-09-09T12:20:09.731Z,3720.00
2018-09-09T12:21:09.431Z,3636.00
2018-09-09T12:22:09.431Z,3592.00
2018-09-09T12:23:09.415Z,3552.00
2018-09-09T12:24:09.392Z,3560.00
2018-09-09T12:25:09.388Z,3576.00
2018-09-09T12:26:09.371Z,3604.00
2018-09-09T12:27:09.566Z,3612.00
2018-09-09T12:28:09.356Z,3668.00
2018-09-09T12:29:09.337Z,3716.00
2018-09-09T12:30:09.334Z,3720.00